createdAt,value
2019-06-01T00:01:55.909Z,100431.89
2019-06-01T00:04:27.945Z,100428.23
2019-06-01T00:06:59.832Z,100426.64
2019-06-01T00:09:31.734Z,100417.81
2019-06-01T00:12:03.411Z,100416.22
2019-06-01T00:14:35.540Z,100419.80
2019-06-01T00:17:07.234Z,100417.94
2019-06-01T00:19:39.943Z,100410.83
2019-06-01T00:22:11.843Z,100410.95
2019-06-01T00:24:44.360Z,100408.39
2019-06-01T00:27:16.122Z,100403.27
2019-06-01T00:29:49.517Z,100401.81
2019-06-01T00:32:21.554Z,100396.68
2019-06-01T00:34:53.390Z,100395.93
2019-06-01T00:37:25.252Z,100401.31
2019-06-01T00:39:57.345Z,100399.25
2019-06-01T00:42:29.291Z,100393.50
2019-06-01T00:45:01.151Z,100397.16
2019-06-01T00:47:33.151Z,100405.38
2019-06-01T00:50:08.164Z,100427.42
2019-06-01T00:52:39.948Z,100427.64
2019-06-01T00:55:11.684Z,100425.84
2019-06-01T00:57:43.545Z,100435.02
2019-06-01T01:00:15.404Z,100425.34
2019-06-01T01:02:48.036Z,100432.45
2019-06-01T01:05:20.282Z,100437.83
2019-06-01T01:07:53.567Z,100439.18
2019-06-01T01:10:25.901Z,100437.83
2019-06-01T01:13:06.615Z,100430.73
2019-06-01T01:15:39.162Z,100432.45
2019-06-01T01:18:11.072Z,100436.11
2019-06-01T01:20:42.781Z,100438.80
2019-06-01T01:23:14.745Z,100434.36
2019-06-01T01:25:46.825Z,100437.17
2019-06-01T01:28:18.807Z,100435.83
2019-06-01T01:31:06.594Z,100431.92
2019-06-01T01:33:25.819Z,100434.73
2019-06-01T01:35:57.912Z,100429.48
2019-06-01T01:38:29.849Z,100433.14
2019-06-01T01:41:01.835Z,100432.42
2019-06-01T01:43:33.704Z,100427.27
2019-06-01T01:46:05.697Z,100426.55
2019-06-01T01:48:37.672Z,100427.52
2019-06-01T01:51:09.679Z,100431.17
2019-06-01T01:53:41.472Z,100434.88
2019-06-01T01:56:13.322Z,100429.23
2019-06-01T01:58:45.401Z,100433.41
2019-06-01T02:01:22.860Z,100438.79
2019-06-01T02:03:51.812Z,100442.45
2019-06-01T02:06:24.331Z,100447.83
2019-06-01T02:08:57.111Z,100444.39
2019-06-01T02:11:29.288Z,100446.73
2019-06-01T02:14:02.081Z,100445.02
2019-06-01T02:16:35.365Z,100441.95
2019-06-01T02:19:07.280Z,100437.91
2019-06-01T02:21:39.192Z,100437.53
2019-06-01T02:24:11.148Z,100437.06
2019-06-01T02:26:42.967Z,100440.22
2019-06-01T02:29:14.876Z,100442.91
2019-06-01T02:31:46.784Z,100443.80
2019-06-01T02:34:18.599Z,100448.67
2019-06-01T02:36:50.501Z,100437.66
2019-06-01T02:39:22.377Z,100442.91
2019-06-01T02:41:56.683Z,100446.95
2019-06-01T02:44:28.700Z,100449.05
2019-06-01T02:47:01.550Z,100438.16
2019-06-01T02:49:33.559Z,100434.63
2019-06-01T02:52:06.141Z,100437.66
2019-06-01T02:54:37.945Z,100441.70
2019-06-01T02:57:09.954Z,100435.34
2019-06-01T02:59:41.869Z,100434.38
2019-06-01T03:02:15.042Z,100441.35
2019-06-01T03:04:47.273Z,100442.07
2019-06-01T03:07:19.265Z,100437.06
2019-06-01T03:09:51.068Z,100439.52
2019-06-01T03:12:22.873Z,100430.11
2019-06-01T03:14:54.945Z,100434.48
2019-06-01T03:17:26.836Z,100428.91
2019-06-01T03:19:59.637Z,100431.45
2019-06-01T03:22:33.242Z,100432.94
2019-06-01T03:25:05.985Z,100422.52
2019-06-01T03:27:38.418Z,100428.50
2019-06-01T03:30:14.567Z,100433.39
2019-06-01T03:32:46.361Z,100433.59
2019-06-01T03:35:18.214Z,100432.31
2019-06-01T03:37:50.530Z,100429.75
2019-06-01T03:40:23.929Z,100437.39
2019-06-01T03:42:56.099Z,100433.13
2019-06-01T03:45:28.164Z,100434.88
2019-06-01T03:48:00.485Z,100441.14
2019-06-01T03:50:32.559Z,100435.99
2019-06-01T03:53:04.409Z,100436.33
2019-06-01T03:55:36.271Z,100437.75
2019-06-01T03:58:09.125Z,100440.11
2019-06-01T04:00:41.221Z,100432.82
2019-06-01T04:03:13.187Z,100435.27
2019-06-01T04:05:45.142Z,100435.95
2019-06-01T04:08:17.142Z,100438.91
2019-06-01T04:10:48.892Z,100447.66
2019-06-01T04:13:20.887Z,100449.15
2019-06-01T04:15:52.738Z,100440.53
2019-06-01T04:18:24.686Z,100445.75
2019-06-01T04:20:56.408Z,100452.67
2019-06-01T04:23:28.251Z,100457.80
2019-06-01T04:25:59.956Z,100451.11
2019-06-01T04:28:31.834Z,100444.09
2019-06-01T04:31:04.557Z,100445.66
2019-06-01T04:33:36.621Z,100451.51
2019-06-01T04:36:08.990Z,100463.30
2019-06-01T04:38:41.103Z,100463.76
2019-06-01T04:41:14.128Z,100463.14
2019-06-01T04:43:46.290Z,100464.72
2019-06-01T04:46:18.174Z,100468.41
2019-06-01T04:48:50.150Z,100472.67
2019-06-01T04:51:21.938Z,100475.84
2019-06-01T04:53:53.889Z,100475.66
2019-06-01T04:56:26.855Z,100470.41
2019-06-01T04:58:58.719Z,100473.85
2019-06-01T05:01:30.467Z,100471.80
2019-06-01T05:04:02.322Z,100471.98
2019-06-01T05:06:35.284Z,100474.95
2019-06-01T05:09:09.290Z,100471.18
2019-06-01T05:11:41.412Z,100473.14
2019-06-01T05:14:13.802Z,100470.44
2019-06-01T05:16:45.625Z,100464.58
2019-06-01T05:19:17.414Z,100463.97
2019-06-01T05:21:49.254Z,100467.74
2019-06-01T05:24:21.429Z,100465.14
2019-06-01T05:26:53.256Z,100470.36
2019-06-01T05:29:25.244Z,100464.45
2019-06-01T05:31:57.905Z,100462.07
2019-06-01T05:34:29.792Z,100459.09
2019-06-01T05:37:01.643Z,100459.73
2019-06-01T05:39:33.566Z,100464.85
2019-06-01T05:42:05.390Z,100454.98
2019-06-01T05:44:37.174Z,100460.61
2019-06-01T05:47:10.041Z,100468.53
2019-06-01T05:49:42.007Z,100463.22
2019-06-01T05:52:14.491Z,100463.67
2019-06-01T05:54:46.459Z,100466.83
2019-06-01T05:57:19.474Z,100460.86
2019-06-01T05:59:51.271Z,100453.91
2019-06-01T06:02:23.140Z,100454.95
2019-06-01T06:04:54.953Z,100452.66
2019-06-01T06:07:26.903Z,100451.03
2019-06-01T06:09:58.795Z,100450.17
2019-06-01T06:12:30.764Z,100453.03
2019-06-01T06:15:02.681Z,100457.54
2019-06-01T06:17:34.923Z,100455.90
2019-06-01T06:20:06.768Z,100450.23
2019-06-01T06:22:41.184Z,100455.94
2019-06-01T06:25:14.170Z,100449.44
2019-06-01T06:27:46.415Z,100452.21
2019-06-01T06:30:19.007Z,100450.94
2019-06-01T06:32:50.990Z,100454.66
2019-06-01T06:35:23.713Z,100451.59
2019-06-01T06:37:55.755Z,100458.43
2019-06-01T06:40:27.731Z,100458.53
2019-06-01T06:42:59.613Z,100456.89
2019-06-01T06:45:31.565Z,100463.28
2019-06-01T06:48:03.531Z,100461.59
2019-06-01T06:50:35.313Z,100461.37
2019-06-01T06:53:07.231Z,100465.92
2019-06-01T06:55:40.303Z,100468.63
2019-06-01T06:58:12.137Z,100472.19
2019-06-01T07:00:43.930Z,100464.76
2019-06-01T07:03:16.860Z,100464.84
2019-06-01T07:05:48.879Z,100468.38
2019-06-01T07:08:21.759Z,100457.34
2019-06-01T07:10:53.836Z,100461.55
2019-06-01T07:13:27.636Z,100460.20
2019-06-01T07:15:59.714Z,100462.57
2019-06-01T07:18:31.937Z,100470.13
2019-06-01T07:21:03.884Z,100466.62
2019-06-01T07:23:35.830Z,100463.38
2019-06-01T07:26:07.780Z,100468.52
2019-06-01T07:28:40.563Z,100468.14
2019-06-01T07:31:12.417Z,100471.48
2019-06-01T07:33:44.275Z,100468.95
2019-06-01T07:36:16.232Z,100464.70
2019-06-01T07:38:48.265Z,100467.73
2019-06-01T07:41:20.669Z,100475.02
2019-06-01T07:43:52.521Z,100473.47
2019-06-01T07:46:24.898Z,100473.93
2019-06-01T07:48:56.648Z,100465.22
2019-06-01T07:51:29.635Z,100468.20
2019-06-01T07:54:01.596Z,100475.30
2019-06-01T07:56:33.399Z,100472.94
2019-06-01T07:59:05.413Z,100469.91
2019-06-01T08:01:37.211Z,100471.07
2019-06-01T08:04:09.006Z,100472.91
2019-06-01T08:06:46.391Z,100473.52
2019-06-01T08:09:14.200Z,100469.61
2019-06-01T08:11:45.991Z,100472.60
2019-06-01T08:14:17.872Z,100470.87
2019-06-01T08:16:49.717Z,100467.92
2019-06-01T08:19:22.087Z,100468.04
2019-06-01T08:21:54.218Z,100457.42
2019-06-01T08:24:26.246Z,100457.32
2019-06-01T08:26:58.130Z,100457.95
2019-06-01T08:29:30.735Z,100456.45
2019-06-01T08:32:02.656Z,100460.28
2019-06-01T08:34:34.570Z,100459.45
2019-06-01T08:37:06.384Z,100454.89
2019-06-01T08:39:38.180Z,100455.55
2019-06-01T08:42:10.106Z,100449.79
2019-06-01T08:44:41.893Z,100453.88
2019-06-01T08:47:13.658Z,100450.45
2019-06-01T08:49:45.335Z,100458.11
2019-06-01T08:52:17.199Z,100453.14
2019-06-01T08:54:48.942Z,100444.96
2019-06-01T08:57:20.713Z,100449.04
2019-06-01T08:59:52.323Z,100446.66
2019-06-01T09:02:24.583Z,100450.08
2019-06-01T09:04:56.419Z,100441.38
2019-06-01T09:07:28.991Z,100446.28
2019-06-01T09:10:00.982Z,100444.60
2019-06-01T09:12:33.294Z,100446.92
2019-06-01T09:15:07.519Z,100449.81
2019-06-01T09:17:39.219Z,100452.00
2019-06-01T09:20:10.923Z,100446.89
2019-06-01T09:22:42.654Z,100451.64
2019-06-01T09:25:14.434Z,100450.80
2019-06-01T09:27:46.237Z,100446.05
2019-06-01T09:30:17.918Z,100442.79
2019-06-01T09:32:49.730Z,100446.87
2019-06-01T09:35:21.710Z,100444.15
2019-06-01T09:37:53.564Z,100439.38
2019-06-01T09:40:27.299Z,100434.27
2019-06-01T09:42:58.831Z,100438.70
2019-06-01T09:45:30.480Z,100432.55
2019-06-01T09:48:02.335Z,100432.23
2019-06-01T09:50:35.281Z,100431.54
2019-06-01T09:53:07.378Z,100430.01
2019-06-01T09:55:40.255Z,100435.28
2019-06-01T09:58:15.018Z,100429.53
2019-06-01T10:00:48.227Z,100426.81
2019-06-01T10:03:19.962Z,100424.76
2019-06-01T10:06:01.412Z,100422.74
2019-06-01T10:08:25.188Z,100414.05
2019-06-01T10:10:57.016Z,100412.70
2019-06-01T10:13:30.322Z,100409.16
2019-06-01T10:16:02.087Z,100405.08
2019-06-01T10:18:35.221Z,100403.55
2019-06-01T10:21:23.770Z,100412.95
2019-06-01T10:23:55.542Z,100409.54
2019-06-01T10:26:28.030Z,100410.07
2019-06-01T10:28:59.769Z,100418.73
2019-06-01T10:31:32.610Z,100409.55
2019-06-01T10:34:04.848Z,100409.06
2019-06-01T10:36:37.997Z,100412.63
2019-06-01T10:39:09.989Z,100405.30
2019-06-01T10:41:41.847Z,100401.91
2019-06-01T10:44:13.718Z,100410.92
2019-06-01T10:46:45.481Z,100402.58
2019-06-01T10:49:17.357Z,100395.94
2019-06-01T10:51:49.453Z,100397.68
2019-06-01T10:54:21.337Z,100401.42
2019-06-01T10:56:53.394Z,100400.05
2019-06-01T10:59:25.336Z,100402.60
2019-06-01T11:01:57.181Z,100397.33
2019-06-01T11:04:28.963Z,100393.59
2019-06-01T11:07:00.988Z,100389.82
2019-06-01T11:09:33.034Z,100381.97
2019-06-01T11:12:04.973Z,100386.05
2019-06-01T11:14:37.115Z,100378.93
2019-06-01T11:17:09.080Z,100381.97
2019-06-01T11:19:42.076Z,100376.87
2019-06-01T11:22:14.115Z,100375.52
2019-06-01T11:24:45.968Z,100369.57
2019-06-01T11:27:17.909Z,100372.78
2019-06-01T11:29:51.721Z,100369.23
2019-06-01T11:32:23.652Z,100370.59
2019-06-01T11:34:55.500Z,100367.34
2019-06-01T11:37:27.265Z,100370.41
2019-06-01T11:39:59.059Z,100367.69
2019-06-01T11:42:31.117Z,100363.95
2019-06-01T11:45:03.042Z,100354.73
2019-06-01T11:47:34.999Z,100360.70
2019-06-01T11:50:07.106Z,100360.53
2019-06-01T11:52:41.070Z,100360.36
2019-06-01T11:55:13.122Z,100360.36
2019-06-01T11:57:45.903Z,100356.45
2019-06-01T12:00:17.988Z,100353.06
2019-06-01T12:02:49.884Z,100341.47
2019-06-01T12:05:21.595Z,100341.47
2019-06-01T12:07:53.515Z,100340.80
2019-06-01T12:10:25.411Z,100338.08
2019-06-01T12:12:57.274Z,100339.27
2019-06-01T12:15:29.109Z,100337.07
2019-06-01T12:18:00.933Z,100336.02
2019-06-01T12:20:32.699Z,100328.91
2019-06-01T12:23:04.470Z,100330.92
2019-06-01T12:25:36.185Z,100329.56
2019-06-01T12:28:08.016Z,100321.92
2019-06-01T12:30:39.815Z,100324.81
2019-06-01T12:33:11.830Z,100333.65
2019-06-01T12:35:44.021Z,100338.43
2019-06-01T12:38:15.966Z,100326.84
2019-06-01T12:40:47.858Z,100336.02
2019-06-01T12:43:19.783Z,100331.63
2019-06-01T12:46:05.527Z,100332.98
2019-06-01T12:48:25.265Z,100330.27
2019-06-01T12:50:57.043Z,100329.56
2019-06-01T12:53:28.873Z,100326.84
2019-06-01T12:56:00.724Z,100323.59
2019-06-01T12:58:32.596Z,100328.03
2019-06-01T13:01:04.482Z,100326.45
2019-06-01T13:03:36.213Z,100326.14
2019-06-01T13:06:08.160Z,100324.42
2019-06-01T13:08:40.661Z,100324.42
2019-06-01T13:11:14.201Z,100325.78
2019-06-01T13:13:47.337Z,100330.20
2019-06-01T13:16:19.157Z,100328.14
2019-06-01T13:18:51.683Z,100333.76
2019-06-01T13:21:27.546Z,100332.58
2019-06-01T13:23:57.730Z,100332.58
2019-06-01T13:26:29.558Z,100337.01
2019-06-01T13:29:01.581Z,100341.09
2019-06-01T13:31:34.501Z,100339.56
2019-06-01T13:34:06.307Z,100338.03
2019-06-01T13:36:38.151Z,100333.94
2019-06-01T13:39:10.272Z,100333.59
2019-06-01T13:41:43.012Z,100333.42
2019-06-01T13:44:14.921Z,100334.61
2019-06-01T13:46:49.469Z,100322.72
2019-06-01T13:49:21.516Z,100324.77
2019-06-01T13:51:54.560Z,100323.73
2019-06-01T13:54:26.530Z,100323.24
2019-06-01T13:56:58.348Z,100318.64
2019-06-01T13:59:30.164Z,100315.56
2019-06-01T14:02:02.087Z,100314.72
2019-06-01T14:04:34.059Z,100307.09
2019-06-01T14:07:05.851Z,100307.40
2019-06-01T14:09:37.829Z,100297.56
2019-06-01T14:12:09.554Z,100308.27
2019-06-01T14:14:41.381Z,100303.66
2019-06-01T14:17:13.230Z,100291.06
2019-06-01T14:19:45.645Z,100298.22
2019-06-01T14:22:17.493Z,100294.48
2019-06-01T14:24:59.843Z,100292.61
2019-06-01T14:27:22.795Z,100291.24
2019-06-01T14:29:54.899Z,100286.33
2019-06-01T14:32:26.691Z,100283.59
2019-06-01T14:34:58.559Z,100280.87
2019-06-01T14:37:30.424Z,100285.63
2019-06-01T14:40:02.353Z,100280.87
2019-06-01T14:42:34.386Z,100284.27
2019-06-01T14:45:07.761Z,100277.14
2019-06-01T14:47:39.477Z,100274.73
2019-06-01T14:50:12.877Z,100273.06
2019-06-01T14:52:44.590Z,100274.42
2019-06-01T14:55:16.556Z,100278.16
2019-06-01T14:57:49.946Z,100275.44
2019-06-01T15:00:23.087Z,100280.53
2019-06-01T15:02:54.883Z,100262.17
2019-06-01T15:05:26.712Z,100282.23
2019-06-01T15:07:59.175Z,100282.41
2019-06-01T15:10:31.068Z,100278.16
2019-06-01T15:13:03.623Z,100274.06
2019-06-01T15:15:35.673Z,100280.52
2019-06-01T15:18:10.831Z,100283.59
2019-06-01T15:20:42.782Z,100293.77
2019-06-01T15:23:14.622Z,100291.39
2019-06-01T15:25:46.618Z,100293.44
2019-06-01T15:28:18.587Z,100290.89
2019-06-01T15:30:50.838Z,100287.08
2019-06-01T15:33:22.917Z,100281.48
2019-06-01T15:35:55.960Z,100275.33
2019-06-01T15:38:28.044Z,100270.57
2019-06-01T15:41:00.557Z,100275.65
2019-06-01T15:43:32.578Z,100278.00
2019-06-01T15:46:04.445Z,100273.56
2019-06-01T15:48:36.352Z,100271.52
2019-06-01T15:51:08.759Z,100272.87
2019-06-01T15:53:40.623Z,100270.75
2019-06-01T15:56:12.504Z,100284.01
2019-06-01T15:58:52.823Z,100280.56
2019-06-01T16:01:18.074Z,100283.27
2019-06-01T16:03:49.982Z,100280.70
2019-06-01T16:06:21.976Z,100278.13
2019-06-01T16:08:55.128Z,100275.20
2019-06-01T16:11:27.457Z,100280.80
2019-06-01T16:13:59.905Z,100275.34
2019-06-01T16:16:31.976Z,100275.49
2019-06-01T16:19:07.751Z,100273.59
2019-06-01T16:21:37.650Z,100271.37
2019-06-01T16:24:09.713Z,100279.45
2019-06-01T16:26:41.691Z,100271.80
2019-06-01T16:29:13.596Z,100268.90
2019-06-01T16:31:45.621Z,100275.50
2019-06-01T16:34:17.512Z,100286.33
2019-06-01T16:36:49.499Z,100286.66
2019-06-01T16:39:21.407Z,100292.25
2019-06-01T16:41:53.276Z,100288.98
2019-06-01T16:44:25.088Z,100287.60
2019-06-01T16:46:57.643Z,100286.92
2019-06-01T16:49:29.680Z,100291.13
2019-06-01T16:52:03.049Z,100285.19
2019-06-01T16:54:35.234Z,100277.69
2019-06-01T16:57:07.441Z,100280.56
2019-06-01T16:59:39.401Z,100276.98
2019-06-01T17:02:11.468Z,100278.66
2019-06-01T17:04:43.360Z,100277.27
2019-06-01T17:07:15.366Z,100267.73
2019-06-01T17:09:47.253Z,100267.52
2019-06-01T17:12:19.109Z,100265.45
2019-06-01T17:14:51.020Z,100267.32
2019-06-01T17:17:23.147Z,100265.57
2019-06-01T17:19:55.356Z,100266.73
2019-06-01T17:22:28.247Z,100263.70
2019-06-01T17:25:00.149Z,100268.05
2019-06-01T17:27:32.246Z,100277.03
2019-06-01T17:30:09.290Z,100277.67
2019-06-01T17:32:38.584Z,100275.63
2019-06-01T17:35:10.391Z,100272.53
2019-06-01T17:37:42.366Z,100279.98
2019-06-01T17:40:14.313Z,100278.27
2019-06-01T17:42:46.336Z,100277.72
2019-06-01T17:45:18.141Z,100276.67
2019-06-01T17:47:50.019Z,100275.48
2019-06-01T17:50:22.542Z,100283.41
2019-06-01T17:52:54.624Z,100296.77
2019-06-01T17:55:29.420Z,100300.16
2019-06-01T17:58:01.601Z,100298.08
2019-06-01T18:00:33.828Z,100274.48
2019-06-01T18:03:10.089Z,100295.09
2019-06-01T18:05:43.475Z,100294.05
2019-06-01T18:08:15.511Z,100301.83
2019-06-01T18:10:54.660Z,100302.98
2019-06-01T18:13:21.203Z,100303.66
2019-06-01T18:15:53.150Z,100305.32
2019-06-01T18:18:25.295Z,100313.61
2019-06-01T18:20:57.183Z,100318.47
2019-06-01T18:23:29.294Z,100328.11
2019-06-01T18:26:02.432Z,100327.91
2019-06-01T18:28:34.840Z,100334.83
2019-06-01T18:31:06.813Z,100337.34
2019-06-01T18:33:38.736Z,100339.69
2019-06-01T18:36:11.620Z,100343.06
2019-06-01T18:38:43.775Z,100345.05
2019-06-01T18:41:19.477Z,100343.85
2019-06-01T18:43:49.383Z,100337.75
2019-06-01T18:46:21.279Z,100343.32
2019-06-01T18:48:53.368Z,100345.98
2019-06-01T18:51:25.428Z,100347.97
2019-06-01T18:53:57.375Z,100349.47
2019-06-01T18:56:29.348Z,100357.75
2019-06-01T18:59:04.868Z,100355.34
2019-06-01T19:01:36.645Z,100363.11
2019-06-01T19:04:09.702Z,100371.39
2019-06-01T19:06:41.927Z,100369.83
2019-06-01T19:09:13.872Z,100375.25
2019-06-01T19:11:45.856Z,100369.11
2019-06-01T19:14:17.819Z,100379.61
2019-06-01T19:16:49.705Z,100380.97
2019-06-01T19:19:21.700Z,100382.92
2019-06-01T19:21:54.687Z,100383.59
2019-06-01T19:24:26.635Z,100385.42
2019-06-01T19:26:59.284Z,100386.08
2019-06-01T19:29:31.287Z,100378.11
2019-06-01T19:32:03.258Z,100386.23
2019-06-01T19:34:36.373Z,100380.61
2019-06-01T19:37:08.972Z,100383.80
2019-06-01T19:39:41.285Z,100389.52
2019-06-01T19:42:15.526Z,100386.37
2019-06-01T19:44:47.880Z,100385.69
2019-06-01T19:47:19.889Z,100384.12
2019-06-01T19:49:51.784Z,100386.25
2019-06-01T19:52:23.885Z,100396.03
2019-06-01T19:54:55.868Z,100411.91
2019-06-01T19:57:27.925Z,100439.28
2019-06-01T19:59:59.883Z,100470.05
2019-06-01T20:02:34.266Z,100491.30
2019-06-01T20:05:06.476Z,100516.50
2019-06-01T20:07:38.535Z,100491.19
2019-06-01T20:10:10.723Z,100513.43
2019-06-01T20:12:42.686Z,100524.06
2019-06-01T20:15:15.515Z,100552.83
2019-06-01T20:17:47.740Z,100552.14
2019-06-01T20:20:19.824Z,100557.78
2019-06-01T20:22:52.087Z,100575.93
2019-06-01T20:25:24.040Z,100584.95
2019-06-01T20:27:56.003Z,100587.48
2019-06-01T20:30:28.151Z,100578.70
2019-06-01T20:33:00.261Z,100579.86
2019-06-01T20:35:32.211Z,100573.75
2019-06-01T20:38:04.273Z,100580.80
2019-06-01T20:40:36.314Z,100578.12
2019-06-01T20:43:08.339Z,100568.86
2019-06-01T20:45:40.364Z,100574.83
2019-06-01T20:48:13.338Z,100559.77
2019-06-01T20:50:45.950Z,100566.26
2019-06-01T20:53:18.940Z,100562.09
2019-06-01T20:55:50.894Z,100556.20
2019-06-01T20:58:23.796Z,100550.19
2019-06-01T21:00:56.524Z,100538.82
2019-06-01T21:03:28.423Z,100524.06
2019-06-01T21:06:00.388Z,100522.12
2019-06-01T21:08:32.491Z,100514.16
2019-06-01T21:11:04.386Z,100519.76
2019-06-01T21:13:36.169Z,100534.81
2019-06-01T21:16:08.045Z,100536.65
2019-06-01T21:18:39.987Z,100537.60
2019-06-01T21:21:14.202Z,100532.20
2019-06-01T21:23:46.369Z,100532.66
2019-06-01T21:26:18.925Z,100519.70
2019-06-01T21:28:50.918Z,100522.51
2019-06-01T21:31:23.201Z,100518.09
2019-06-01T21:33:55.237Z,100517.67
2019-06-01T21:36:27.146Z,100511.85
2019-06-01T21:38:59.063Z,100503.77
2019-06-01T21:41:30.974Z,100490.06
2019-06-01T21:44:02.847Z,100489.22
2019-06-01T21:46:34.691Z,100493.97
2019-06-01T21:49:06.558Z,100483.08
2019-06-01T21:51:38.384Z,100477.95
2019-06-01T21:54:10.178Z,100479.29
2019-06-01T21:56:42.471Z,100471.92
2019-06-01T21:59:14.276Z,100468.63
2019-06-01T22:01:46.184Z,100458.09
2019-06-01T22:04:19.082Z,100456.14
2019-06-01T22:06:51.090Z,100454.80
2019-06-01T22:09:23.367Z,100454.91
2019-06-01T22:11:55.508Z,100450.36
2019-06-01T22:14:27.744Z,100455.12
2019-06-01T22:16:59.747Z,100447.81
2019-06-01T22:19:31.618Z,100434.38
2019-06-01T22:22:03.447Z,100429.00
2019-06-01T22:24:35.343Z,100432.06
2019-06-01T22:27:07.156Z,100434.13
2019-06-01T22:29:39.038Z,100441.95
2019-06-01T22:32:10.867Z,100440.52
2019-06-01T22:34:42.746Z,100446.13
2019-06-01T22:37:14.608Z,100441.13
2019-06-01T22:39:46.400Z,100437.09
2019-06-01T22:42:18.275Z,100438.20
2019-06-01T22:44:50.284Z,100441.64
2019-06-01T22:47:22.545Z,100439.55
2019-06-01T22:49:54.655Z,100448.23
2019-06-01T22:52:27.068Z,100446.89
2019-06-01T22:54:59.069Z,100450.30
2019-06-01T22:57:31.043Z,100452.98
2019-06-01T23:00:02.887Z,100447.01
2019-06-01T23:02:34.621Z,100448.09
2019-06-01T23:05:06.532Z,100441.95
2019-06-01T23:07:38.578Z,100447.72
2019-06-01T23:10:10.711Z,100444.16
2019-06-01T23:12:42.564Z,100448.66
2019-06-01T23:15:14.340Z,100448.78
2019-06-01T23:17:46.228Z,100455.88
2019-06-01T23:20:17.893Z,100455.88
2019-06-01T23:22:49.870Z,100458.56
2019-06-01T23:25:22.551Z,100467.13
2019-06-01T23:27:54.689Z,100467.59
2019-06-01T23:30:26.483Z,100470.40
2019-06-01T23:32:58.411Z,100471.48
2019-06-01T23:35:30.706Z,100474.91
2019-06-01T23:38:02.615Z,100472.42
2019-06-01T23:40:34.334Z,100475.61
2019-06-01T23:43:07.746Z,100480.11
2019-06-01T23:45:39.510Z,100478.09
2019-06-01T23:48:11.436Z,100486.39
2019-06-01T23:50:43.260Z,100481.71
2019-06-01T23:53:15.108Z,100479.52
2019-06-01T23:55:46.882Z,100475.95
2019-06-01T23:58:18.948Z,100464.25
